createdAt,value
2022-12-01T00:01:06.747Z,75.97
2022-12-01T00:03:34.814Z,69.07
2022-12-01T00:06:15.728Z,79.17
2022-12-01T00:09:03.484Z,77.37
2022-12-01T00:11:30.400Z,80.40
2022-12-01T00:13:56.878Z,80.23
2022-12-01T00:16:23.483Z,79.00
2022-12-01T00:18:51.489Z,83.17
2022-12-01T00:21:20.313Z,78.30
2022-12-01T00:23:49.318Z,77.97
2022-12-01T00:26:17.532Z,76.60
2022-12-01T00:28:44.288Z,80.27
2022-12-01T00:31:12.620Z,82.27
2022-12-01T00:33:39.836Z,79.70
2022-12-01T00:36:07.517Z,77.33
2022-12-01T00:38:34.836Z,75.70
2022-12-01T00:41:04.083Z,75.73
2022-12-01T00:43:30.631Z,78.40
2022-12-01T00:45:57.333Z,78.20
2022-12-01T00:48:24.193Z,80.07
2022-12-01T00:50:52.551Z,79.20
2022-12-01T00:53:19.282Z,76.93
2022-12-01T00:55:45.839Z,76.30
2022-12-01T00:58:12.336Z,80.57
2022-12-01T01:00:39.004Z,80.03
2022-12-01T01:03:07.301Z,77.83
2022-12-01T01:05:38.376Z,78.20
2022-12-01T01:08:12.087Z,75.17
2022-12-01T01:10:44.011Z,81.00
2022-12-01T01:13:11.452Z,82.23
2022-12-01T01:15:38.044Z,78.40
2022-12-01T01:18:05.459Z,79.10
2022-12-01T01:20:32.625Z,80.47
2022-12-01T01:23:00.091Z,76.07
2022-12-01T01:25:26.623Z,78.20
2022-12-01T01:27:53.094Z,82.03
2022-12-01T01:30:20.046Z,86.53
2022-12-01T01:32:46.538Z,82.93
2022-12-01T01:35:12.980Z,83.60
2022-12-01T01:37:39.565Z,79.27
2022-12-01T01:40:06.695Z,83.10
2022-12-01T01:42:33.124Z,83.23
2022-12-01T01:45:00.261Z,82.63
2022-12-01T01:47:36.231Z,85.43
2022-12-01T01:50:09.145Z,80.97
2022-12-01T01:52:38.456Z,82.37
2022-12-01T01:55:05.779Z,76.63
2022-12-01T01:57:33.972Z,83.07
2022-12-01T02:00:27.395Z,79.30
2022-12-01T02:02:54.362Z,85.77
2022-12-01T02:05:27.679Z,82.33
2022-12-01T02:07:57.003Z,83.53
2022-12-01T02:10:41.375Z,82.43
2022-12-01T02:13:30.295Z,83.87
2022-12-01T02:16:08.927Z,83.13
2022-12-01T02:19:02.070Z,78.97
2022-12-01T02:21:32.052Z,79.97
2022-12-01T02:24:26.017Z,81.80
2022-12-01T02:27:02.127Z,82.33
2022-12-01T02:30:07.293Z,86.63
2022-12-01T02:32:49.368Z,80.07
2022-12-01T02:35:37.036Z,77.90
2022-12-01T02:38:14.208Z,89.70
2022-12-01T02:40:50.677Z,84.47
2022-12-01T02:43:23.894Z,83.33
2022-12-01T02:46:10.719Z,91.13
2022-12-01T02:48:39.910Z,84.27
2022-12-01T02:51:18.094Z,85.13
2022-12-01T02:53:44.894Z,82.60
2022-12-01T02:56:13.237Z,84.80
2022-12-01T02:58:39.703Z,90.63
2022-12-01T03:01:32.592Z,86.83
2022-12-01T03:04:27.204Z,84.87
2022-12-01T03:07:12.261Z,87.20
2022-12-01T03:10:25.572Z,84.23
2022-12-01T03:13:34.869Z,88.90
2022-12-01T03:16:25.152Z,91.73
2022-12-01T03:18:57.334Z,89.63
2022-12-01T03:21:33.081Z,89.03
2022-12-01T03:24:09.119Z,88.30
2022-12-01T03:26:37.518Z,87.27
2022-12-01T03:29:08.342Z,85.93
2022-12-01T03:31:40.725Z,89.23
2022-12-01T03:34:14.899Z,85.87
2022-12-01T03:36:50.080Z,94.70
2022-12-01T03:39:24.780Z,94.03
2022-12-01T03:42:05.456Z,92.27
2022-12-01T03:44:45.393Z,90.03
2022-12-01T03:47:20.774Z,91.63
2022-12-01T03:49:50.596Z,89.13
2022-12-01T03:52:51.185Z,88.50
2022-12-01T03:55:26.119Z,92.17
2022-12-01T03:58:02.278Z,89.17
2022-12-01T04:00:31.355Z,91.37
2022-12-01T04:03:00.461Z,93.27
2022-12-01T04:05:27.395Z,93.10
2022-12-01T04:07:54.009Z,91.50
2022-12-01T04:10:20.529Z,93.17
2022-12-01T04:12:46.953Z,97.67
2022-12-01T04:15:14.455Z,95.03
2022-12-01T04:17:44.956Z,94.00
2022-12-01T04:20:14.309Z,92.00
2022-12-01T04:22:41.160Z,87.37
2022-12-01T04:25:08.348Z,92.47
2022-12-01T04:27:35.440Z,92.97
2022-12-01T04:30:02.368Z,92.50
2022-12-01T04:32:28.866Z,92.17
2022-12-01T04:34:55.348Z,93.83
2022-12-01T04:37:21.837Z,100.97
2022-12-01T04:39:48.528Z,100.57
2022-12-01T04:42:15.134Z,95.53
2022-12-01T04:44:41.571Z,103.43
2022-12-01T04:47:08.062Z,106.93
2022-12-01T04:49:35.251Z,107.60
2022-12-01T04:52:03.346Z,106.53
2022-12-01T04:54:30.176Z,106.43
2022-12-01T04:56:56.675Z,107.60
2022-12-01T04:59:23.131Z,111.27
2022-12-01T05:01:49.621Z,113.00
2022-12-01T05:04:16.270Z,117.80
2022-12-01T05:06:43.018Z,119.70
2022-12-01T05:09:16.861Z,119.70
2022-12-01T05:11:44.410Z,127.40
2022-12-01T05:14:10.912Z,125.93
2022-12-01T05:16:37.605Z,118.30
2022-12-01T05:19:24.276Z,137.77
2022-12-01T05:21:51.831Z,118.77
2022-12-01T05:24:19.895Z,127.23
2022-12-01T05:26:46.440Z,133.37
2022-12-01T05:29:13.938Z,130.43
2022-12-01T05:31:40.736Z,129.07
2022-12-01T05:34:08.159Z,137.43
2022-12-01T05:36:34.635Z,130.63
2022-12-01T05:39:03.366Z,127.93
2022-12-01T05:41:30.167Z,133.70
2022-12-01T05:43:56.696Z,140.07
2022-12-01T05:46:23.258Z,139.73
2022-12-01T05:48:49.832Z,141.80
2022-12-01T05:51:17.343Z,135.80
2022-12-01T05:53:44.424Z,130.37
2022-12-01T05:56:11.304Z,139.43
2022-12-01T05:58:37.867Z,141.57
2022-12-01T06:01:04.849Z,131.33
2022-12-01T06:03:31.552Z,141.03
2022-12-01T06:05:58.078Z,133.63
2022-12-01T06:08:24.671Z,136.83
2022-12-01T06:10:51.133Z,129.63
2022-12-01T06:13:17.602Z,123.63
2022-12-01T06:15:44.128Z,124.33
2022-12-01T06:18:10.660Z,124.20
2022-12-01T06:20:37.164Z,118.53
2022-12-01T06:23:04.298Z,119.33
2022-12-01T06:25:30.756Z,135.43
2022-12-01T06:27:58.515Z,119.60
2022-12-01T06:30:26.270Z,120.00
2022-12-01T06:32:52.845Z,120.47
2022-12-01T06:35:20.396Z,119.10
2022-12-01T06:37:46.884Z,124.13
2022-12-01T06:40:13.565Z,121.00
2022-12-01T06:42:40.162Z,119.47
2022-12-01T06:45:07.127Z,119.73
2022-12-01T06:47:33.714Z,114.87
2022-12-01T06:50:00.433Z,130.07
2022-12-01T06:52:28.302Z,116.57
2022-12-01T06:54:54.773Z,121.87
2022-12-01T06:57:21.292Z,121.30
2022-12-01T06:59:48.286Z,130.00
2022-12-01T07:02:16.862Z,131.10
2022-12-01T07:04:43.499Z,136.00
2022-12-01T07:07:11.117Z,135.33
2022-12-01T07:09:37.675Z,139.90
2022-12-01T07:12:04.287Z,136.60
2022-12-01T07:14:31.687Z,143.40
2022-12-01T07:16:59.110Z,159.60
2022-12-01T07:19:25.910Z,144.87
2022-12-01T07:21:52.377Z,144.53
2022-12-01T07:24:18.880Z,149.40
2022-12-01T07:26:45.396Z,137.17
2022-12-01T07:29:12.140Z,154.53
2022-12-01T07:31:39.007Z,149.60
2022-12-01T07:34:06.041Z,141.80
2022-12-01T07:36:32.933Z,143.43
2022-12-01T07:38:59.537Z,142.27
2022-12-01T07:41:26.066Z,139.73
2022-12-01T07:43:52.563Z,143.73
2022-12-01T07:46:23.631Z,128.13
2022-12-01T07:48:51.497Z,125.87
2022-12-01T07:51:18.600Z,124.70
2022-12-01T07:53:46.571Z,105.40
2022-12-01T07:56:13.573Z,101.07
2022-12-01T07:58:40.116Z,86.80
2022-12-01T08:01:09.005Z,93.97
2022-12-01T08:03:36.089Z,88.03
2022-12-01T08:06:04.552Z,81.70
2022-12-01T08:08:33.115Z,85.17
2022-12-01T08:11:06.664Z,83.10
2022-12-01T08:13:33.962Z,83.50
2022-12-01T08:16:07.345Z,90.47
2022-12-01T08:18:35.528Z,92.10
2022-12-01T08:21:02.496Z,88.20
2022-12-01T08:23:29.145Z,82.10
2022-12-01T08:25:57.453Z,81.70
2022-12-01T08:28:23.967Z,88.73
2022-12-01T08:30:50.436Z,84.43
2022-12-01T08:33:16.968Z,83.17
2022-12-01T08:35:43.481Z,77.60
2022-12-01T08:38:10.586Z,74.60
2022-12-01T08:40:37.066Z,81.23
2022-12-01T08:43:05.039Z,73.83
2022-12-01T08:45:32.043Z,80.47
2022-12-01T08:48:00.499Z,76.70
2022-12-01T08:50:27.906Z,84.07
2022-12-01T08:52:54.848Z,89.57
2022-12-01T08:55:22.196Z,87.90
2022-12-01T08:57:48.732Z,95.93
2022-12-01T09:00:16.446Z,93.33
2022-12-01T09:02:43.066Z,101.07
2022-12-01T09:05:10.197Z,113.73
2022-12-01T09:07:36.988Z,117.10
2022-12-01T09:10:04.880Z,120.57
2022-12-01T09:12:31.689Z,121.40
2022-12-01T09:14:58.129Z,114.93
2022-12-01T09:17:24.672Z,128.60
2022-12-01T09:19:51.649Z,111.17
2022-12-01T09:22:18.442Z,119.10
2022-12-01T09:24:45.087Z,117.47
2022-12-01T09:27:11.662Z,133.23
2022-12-01T09:29:38.090Z,133.63
2022-12-01T09:32:04.759Z,123.80
2022-12-01T09:34:31.795Z,129.70
2022-12-01T09:36:58.955Z,125.23
2022-12-01T09:39:26.110Z,114.03
2022-12-01T09:42:16.333Z,119.30
2022-12-01T09:44:48.159Z,114.77
2022-12-01T09:47:30.814Z,110.67
2022-12-01T09:50:16.512Z,116.90
2022-12-01T09:52:57.648Z,109.60
2022-12-01T09:55:26.152Z,104.27
2022-12-01T09:57:56.332Z,106.73
2022-12-01T10:00:24.620Z,104.77
2022-12-01T10:03:12.804Z,108.73
2022-12-01T10:08:57.703Z,99.83
2022-12-01T10:11:35.373Z,103.13
2022-12-01T10:14:04.178Z,103.47
2022-12-01T10:16:38.258Z,106.00
2022-12-01T10:19:11.759Z,105.83
2022-12-01T10:21:44.021Z,101.07
2022-12-01T10:24:44.835Z,104.30
2022-12-01T10:27:31.064Z,102.77
2022-12-01T10:30:09.272Z,102.37
2022-12-01T10:32:51.107Z,101.23
2022-12-01T10:35:20.556Z,98.80
2022-12-01T10:37:55.444Z,101.23
2022-12-01T10:40:22.901Z,105.67
2022-12-01T10:42:50.696Z,98.23
2022-12-01T10:45:26.399Z,100.77
2022-12-01T10:48:15.588Z,98.67
2022-12-01T10:50:44.390Z,101.40
2022-12-01T10:53:40.009Z,106.77
2022-12-01T10:56:13.912Z,104.43
2022-12-01T10:58:57.568Z,105.80
2022-12-01T11:01:37.074Z,99.93
2022-12-01T11:04:08.370Z,99.07
2022-12-01T11:06:35.679Z,95.80
2022-12-01T11:09:14.530Z,96.13
2022-12-01T11:11:41.286Z,92.57
2022-12-01T11:14:24.003Z,93.00
2022-12-01T11:16:52.383Z,96.30
2022-12-01T11:19:32.681Z,101.43
2022-12-01T11:22:01.760Z,107.70
2022-12-01T11:24:43.606Z,100.40
2022-12-01T11:27:17.501Z,99.37
2022-12-01T11:29:46.019Z,98.47
2022-12-01T11:32:25.358Z,93.83
2022-12-01T11:34:59.680Z,99.63
2022-12-01T11:37:35.652Z,93.50
2022-12-01T11:40:29.696Z,102.17
2022-12-01T11:43:05.697Z,95.77
2022-12-01T11:45:40.287Z,88.67
2022-12-01T11:48:12.661Z,89.03
2022-12-01T11:50:42.466Z,81.80
2022-12-01T11:53:30.743Z,84.27
2022-12-01T11:56:23.441Z,79.67
2022-12-01T11:59:12.242Z,82.23
2022-12-01T12:01:57.422Z,77.10
2022-12-01T12:04:39.952Z,75.10
2022-12-01T12:07:19.500Z,71.77
2022-12-01T12:10:14.961Z,79.80
2022-12-01T12:13:09.444Z,76.23
2022-12-01T12:15:42.025Z,72.10
2022-12-01T12:18:33.235Z,72.33
2022-12-01T12:21:12.818Z,72.43
2022-12-01T12:23:56.207Z,75.30
2022-12-01T12:26:30.423Z,70.17
2022-12-01T12:29:00.355Z,72.00
2022-12-01T12:31:44.171Z,74.07
2022-12-01T12:34:26.877Z,73.60
2022-12-01T12:37:17.819Z,72.10
2022-12-01T12:40:06.413Z,72.47
2022-12-01T12:43:37.752Z,74.07
2022-12-01T12:46:13.249Z,79.50
2022-12-01T12:49:03.869Z,76.47
2022-12-01T12:51:39.474Z,74.37
2022-12-01T12:54:11.898Z,62.47
2022-12-01T12:56:43.391Z,75.10
2022-12-01T12:59:14.593Z,79.50
2022-12-01T13:02:07.049Z,77.60
2022-12-01T13:04:42.628Z,72.43
2022-12-01T13:07:31.275Z,78.90
2022-12-01T13:10:15.201Z,80.70
2022-12-01T13:12:51.275Z,70.17
2022-12-01T13:15:20.689Z,73.37
2022-12-01T13:17:54.976Z,75.13
2022-12-01T13:20:27.663Z,81.30
2022-12-01T13:22:57.716Z,75.60
2022-12-01T13:25:29.984Z,75.67
2022-12-01T13:27:59.474Z,77.80
2022-12-01T13:30:27.076Z,73.67
2022-12-01T13:33:05.044Z,76.60
2022-12-01T13:35:39.660Z,73.33
2022-12-01T13:38:18.592Z,73.67
2022-12-01T13:40:46.377Z,69.10
2022-12-01T13:43:22.567Z,69.40
2022-12-01T13:45:50.135Z,78.63
2022-12-01T13:48:50.568Z,70.00
2022-12-01T13:51:17.131Z,76.30
2022-12-01T13:54:31.073Z,79.00
2022-12-01T13:57:12.626Z,76.57
2022-12-01T13:59:42.369Z,83.97
2022-12-01T14:02:18.171Z,87.73
2022-12-01T14:04:44.996Z,86.07
2022-12-01T14:07:20.968Z,86.93
2022-12-01T14:09:51.001Z,82.50
2022-12-01T14:12:22.335Z,83.53
2022-12-01T14:14:58.175Z,85.30
2022-12-01T14:17:29.817Z,88.17
2022-12-01T14:20:19.217Z,86.10
2022-12-01T14:22:49.305Z,84.23
2022-12-01T14:25:22.540Z,88.33
2022-12-01T14:27:58.006Z,85.80
2022-12-01T14:30:41.149Z,83.17
2022-12-01T14:33:38.947Z,85.50
2022-12-01T14:36:28.508Z,87.03
2022-12-01T14:38:57.758Z,85.63
2022-12-01T14:41:27.252Z,76.17
2022-12-01T14:44:04.830Z,82.50
2022-12-01T14:47:10.308Z,82.27
2022-12-01T14:49:46.701Z,84.80
2022-12-01T14:52:33.652Z,80.53
2022-12-01T14:55:04.911Z,85.57
2022-12-01T14:57:39.720Z,85.70
2022-12-01T15:00:25.103Z,88.47
2022-12-01T15:02:56.090Z,81.17
2022-12-01T15:05:27.256Z,82.40
2022-12-01T15:08:18.609Z,77.30
2022-12-01T15:10:55.399Z,81.00
2022-12-01T15:13:28.550Z,87.33
2022-12-01T15:15:56.910Z,77.37
2022-12-01T15:18:28.896Z,81.43
2022-12-01T15:21:06.893Z,79.23
2022-12-01T15:23:33.893Z,81.33
2022-12-01T15:26:00.807Z,77.63
2022-12-01T15:28:35.595Z,77.13
2022-12-01T15:31:11.225Z,81.37
2022-12-01T15:33:46.831Z,76.77
2022-12-01T15:36:13.665Z,77.03
2022-12-01T15:38:43.806Z,71.03
2022-12-01T15:41:28.933Z,76.70
2022-12-01T15:43:58.606Z,75.07
2022-12-01T15:46:31.355Z,85.97
2022-12-01T15:49:18.465Z,85.53
2022-12-01T15:51:46.941Z,87.90
2022-12-01T15:54:21.263Z,76.73
2022-12-01T15:56:53.184Z,81.00
2022-12-01T15:59:37.505Z,83.37
2022-12-01T16:02:21.018Z,88.17
2022-12-01T16:04:48.888Z,89.53
2022-12-01T16:07:15.753Z,88.10
2022-12-01T16:09:55.246Z,91.50
2022-12-01T16:12:23.600Z,90.30
2022-12-01T16:14:52.916Z,88.57
2022-12-01T16:17:20.928Z,89.47
2022-12-01T16:19:47.408Z,81.83
2022-12-01T16:22:20.098Z,93.97
2022-12-01T16:24:48.584Z,85.33
2022-12-01T16:27:32.188Z,95.57
2022-12-01T16:30:02.755Z,89.77
2022-12-01T16:32:40.469Z,105.77
2022-12-01T16:35:23.161Z,96.67
2022-12-01T16:37:49.633Z,88.23
2022-12-01T16:40:19.493Z,92.00
2022-12-01T16:42:47.002Z,98.83
2022-12-01T16:45:14.856Z,94.10
2022-12-01T16:47:42.409Z,99.83
2022-12-01T16:50:20.563Z,100.60
2022-12-01T16:52:47.180Z,103.47
2022-12-01T16:55:36.254Z,112.77
2022-12-01T16:58:06.630Z,96.63
2022-12-01T17:00:33.860Z,108.87
2022-12-01T17:03:03.017Z,101.50
2022-12-01T17:05:29.807Z,91.37
2022-12-01T17:07:56.529Z,110.43
2022-12-01T17:10:23.936Z,93.00
2022-12-01T17:12:50.567Z,103.77
2022-12-01T17:15:17.327Z,110.93
2022-12-01T17:17:44.459Z,105.07
2022-12-01T17:20:11.224Z,105.90
2022-12-01T17:22:37.708Z,115.90
2022-12-01T17:25:05.625Z,118.63
2022-12-01T17:27:32.639Z,117.77
2022-12-01T17:33:51.552Z,108.23
2022-12-01T17:36:18.348Z,115.50
2022-12-01T17:38:46.344Z,127.37
2022-12-01T17:41:21.818Z,114.50
2022-12-01T17:43:48.836Z,109.80
2022-12-01T17:46:15.387Z,119.87
2022-12-01T17:48:45.073Z,119.23
2022-12-01T17:51:12.866Z,115.50
2022-12-01T17:53:40.218Z,124.13
2022-12-01T17:56:12.213Z,117.43
2022-12-01T17:58:39.316Z,122.83
2022-12-01T18:01:07.321Z,120.30
2022-12-01T18:03:33.736Z,121.50
2022-12-01T18:06:05.468Z,123.97
2022-12-01T18:08:35.196Z,113.23
2022-12-01T18:11:09.953Z,122.20
2022-12-01T18:13:38.451Z,116.50
2022-12-01T18:16:13.309Z,112.60
2022-12-01T18:18:40.253Z,109.33
2022-12-01T18:21:08.751Z,112.90
2022-12-01T18:23:36.415Z,114.70
2022-12-01T18:26:13.743Z,112.20
2022-12-01T18:28:42.133Z,119.93
2022-12-01T18:31:12.227Z,114.40
2022-12-01T18:33:41.326Z,109.77
2022-12-01T18:36:17.085Z,133.07
2022-12-01T18:38:44.409Z,118.87
2022-12-01T18:41:10.889Z,121.07
2022-12-01T18:43:37.483Z,134.67
2022-12-01T18:46:05.684Z,133.77
2022-12-01T18:48:33.870Z,141.37
2022-12-01T18:51:07.778Z,139.30
2022-12-01T18:53:34.803Z,132.00
2022-12-01T18:56:03.466Z,134.30
2022-12-01T18:58:31.004Z,124.27
2022-12-01T19:00:57.774Z,147.03
2022-12-01T19:03:24.386Z,138.80
2022-12-01T19:05:50.991Z,138.87
2022-12-01T19:08:17.440Z,147.57
2022-12-01T19:10:43.945Z,136.80
2022-12-01T19:13:11.557Z,136.77
2022-12-01T19:15:38.039Z,125.90
2022-12-01T19:18:04.771Z,151.47
2022-12-01T19:20:31.212Z,151.40
2022-12-01T19:22:57.792Z,144.40
2022-12-01T19:25:24.231Z,141.30
2022-12-01T19:27:53.058Z,144.97
2022-12-01T19:30:19.682Z,140.13
2022-12-01T19:32:46.216Z,153.03
2022-12-01T19:35:12.703Z,147.37
2022-12-01T19:37:39.216Z,139.23
2022-12-01T19:40:06.513Z,127.80
2022-12-01T19:42:33.196Z,136.90
2022-12-01T19:45:01.176Z,130.47
2022-12-01T19:47:31.813Z,120.97
2022-12-01T19:49:58.414Z,121.97
2022-12-01T19:52:24.882Z,129.57
2022-12-01T19:54:51.483Z,121.37
2022-12-01T19:57:18.203Z,134.57
2022-12-01T19:59:44.732Z,122.07
2022-12-01T20:02:11.374Z,107.23
2022-12-01T20:04:40.829Z,118.63
2022-12-01T20:07:07.587Z,119.17
2022-12-01T20:09:34.042Z,120.63
2022-12-01T20:12:00.643Z,117.37
2022-12-01T20:14:27.335Z,119.53
2022-12-01T20:16:57.261Z,124.73
2022-12-01T20:19:23.837Z,104.80
2022-12-01T20:21:50.274Z,122.40
2022-12-01T20:24:22.091Z,118.93
2022-12-01T20:26:56.405Z,119.93
2022-12-01T20:29:26.284Z,108.63
2022-12-01T20:31:54.973Z,115.87
2022-12-01T20:34:25.949Z,106.33
2022-12-01T20:36:53.835Z,105.13
2022-12-01T20:39:20.708Z,101.80
2022-12-01T20:41:47.604Z,105.73
2022-12-01T20:44:15.844Z,100.03
2022-12-01T20:50:05.575Z,99.33
2022-12-01T20:52:32.333Z,104.97
2022-12-01T20:54:58.877Z,117.43
2022-12-01T21:57:09.358Z,80.27
2022-12-01T21:59:36.620Z,73.77
2022-12-01T22:02:24.987Z,68.97
2022-12-01T22:04:52.112Z,80.17
2022-12-01T22:07:18.838Z,68.80
2022-12-01T22:09:45.275Z,75.10
2022-12-01T22:12:24.432Z,76.70
2022-12-01T22:14:51.159Z,72.97
2022-12-01T22:17:21.724Z,74.97
2022-12-01T22:19:57.068Z,71.43
2022-12-01T22:22:28.675Z,68.77
2022-12-01T22:25:00.001Z,72.60
2022-12-01T22:27:29.946Z,82.40
2022-12-01T22:30:00.588Z,76.73
2022-12-01T22:32:35.518Z,81.87
2022-12-01T22:35:13.448Z,82.70
2022-12-01T22:37:49.041Z,81.50
2022-12-01T22:40:34.103Z,79.40
2022-12-01T22:43:28.230Z,79.73
2022-12-01T22:46:06.786Z,82.10
2022-12-01T22:48:37.606Z,92.70
2022-12-01T22:51:13.204Z,79.17
2022-12-01T22:53:43.752Z,86.47
2022-12-01T22:56:40.380Z,105.33
2022-12-01T22:59:21.661Z,96.53
2022-12-01T23:01:56.410Z,98.83
2022-12-01T23:04:29.194Z,99.53
2022-12-01T23:06:59.089Z,105.47
2022-12-01T23:09:35.972Z,107.23
2022-12-01T23:12:23.928Z,98.37
2022-12-01T23:14:53.635Z,89.33
2022-12-01T23:17:28.234Z,93.83
2022-12-01T23:20:40.249Z,87.00
2022-12-01T23:23:14.817Z,86.13
2022-12-01T23:25:41.938Z,85.80
2022-12-01T23:28:09.827Z,80.03
2022-12-01T23:30:38.908Z,81.70
2022-12-01T23:33:14.127Z,78.17
2022-12-01T23:35:48.535Z,82.07
2022-12-01T23:38:18.588Z,76.20
2022-12-01T23:40:45.576Z,65.93
2022-12-01T23:43:21.377Z,70.40
2022-12-01T23:45:50.785Z,70.60
2022-12-01T23:48:22.678Z,70.87
2022-12-01T23:50:52.491Z,75.70
2022-12-01T23:53:29.208Z,74.77
2022-12-01T23:55:58.239Z,66.77
2022-12-01T23:58:24.730Z,73.13
